Umatilla, Florida
Current Conditions -  °F | °C
As of 6:53 PM on Monday 22 Dec 2014 (Local Time) from KLEE Reporting Station
Broken Clouds Broken Clouds  
Wind Chill: 69°   Ceiling: 4300
Heat Index: 69°   Visibility: 9mi
Dew Point: 67°   Wind: 5mph
Humidity: 93%   Direction: 160°SSE
Pressure: 29.93"   Gusts: NA
Location:  28.93°N, 81.67°W
Report Text: KLEE 222353Z 16004KT 9SM BKN043 21/19 A2993 RMK AO2 SLP134 T02060194 10244 20206 53006
Loading
Personal Weather Stations






























Interactive Weather Map New forecast layout! Learn more

10-Day Weather Forecast

Advertisements
Track Severe Weather on mobile